Time;durP1;ratioP1;P1;durP2;ratioP2;P2;SDS_P1;SDS_P2;PMS_P1;PMS_P2;Temp;Humidity;BMP_temperature;BMP_pressure;BME280_temperature;BME280_humidity;BME280_pressure;Samples;Min_cycle;Max_cycle;Signal;HPM_P1;HPM_P2
2023/03/29 00:02:32;;;;;;;2.13;1.13;;;;;;;3.90;100.00;97602.44;5030860;28;21553;-60
2023/03/29 00:05:00;;;;;;;4.53;1.50;;;;;;;3.86;100.00;97600.34;5023522;28;20125;-60
2023/03/29 00:07:29;;;;;;;3.35;1.52;;;;;;;3.78;100.00;97598.69;5026412;28;20051;-60
2023/03/29 00:09:55;;;;;;;4.07;1.42;;;;;;;3.71;100.00;97592.47;5021497;28;20046;-60
2023/03/29 00:12:22;;;;;;;3.88;1.92;;;;;;;3.73;100.00;97580.53;5021307;28;20048;-59
2023/03/29 00:14:48;;;;;;;2.70;1.40;;;;;;;3.67;100.00;97581.38;5020607;28;20492;-59
2023/03/29 00:17:15;;;;;;;3.25;1.50;;;;;;;3.60;100.00;97575.16;5026193;28;20116;-60
2023/03/29 00:19:43;;;;;;;3.40;1.83;;;;;;;3.61;100.00;97574.97;5028958;28;20040;-60
2023/03/29 00:22:10;;;;;;;4.88;1.60;;;;;;;3.66;100.00;97577.03;5025456;28;20042;-60
2023/03/29 00:24:36;;;;;;;4.63;1.75;;;;;;;3.85;100.00;97561.19;5020113;28;20038;-60
2023/03/29 00:27:03;;;;;;;2.88;1.58;;;;;;;3.87;100.00;97559.16;5020899;28;20120;-60
2023/03/29 00:29:30;;;;;;;5.15;1.90;;;;;;;3.88;100.00;97564.28;5022507;28;20049;-59
2023/03/29 00:31:56;;;;;;;4.55;1.80;;;;;;;3.98;100.00;97563.91;5022741;28;20499;-58
2023/03/29 00:34:25;;;;;;;3.38;1.65;;;;;;;4.02;100.00;97567.81;5028084;28;20059;-60
2023/03/29 00:36:51;;;;;;;7.15;2.50;;;;;;;4.07;100.00;97561.84;5026253;28;20459;-59
2023/03/29 00:39:19;;;;;;;4.63;1.80;;;;;;;4.09;100.00;97562.47;5022969;28;20086;-59
2023/03/29 00:41:47;;;;;;;5.47;1.80;;;;;;;3.97;100.00;97564.94;5024580;28;20040;-60
2023/03/29 00:44:51;;;;;;;4.13;1.85;;;;;;;3.96;100.00;97562.44;5023584;28;20070;-59
2023/03/29 00:47:25;;;;;;;3.70;1.80;;;;;;;4.18;100.00;97562.25;5026857;28;20045;-60
2023/03/29 00:49:52;;;;;;;4.93;1.80;;;;;;;4.06;100.00;97562.06;5025465;28;20660;-57
2023/03/29 00:52:20;;;;;;;3.55;1.85;;;;;;;3.99;100.00;97554.00;5019409;28;20069;-59
2023/03/29 00:54:51;;;;;;;4.85;1.85;;;;;;;4.01;100.00;97554.63;5025241;28;20045;-59
2023/03/29 00:57:19;;;;;;;5.82;2.05;;;;;;;3.91;100.00;97547.00;5027360;28;20120;-59
2023/03/29 00:59:48;;;;;;;5.22;1.77;;;;;;;4.00;100.00;97543.09;5022018;28;20116;-60
2023/03/29 01:02:20;;;;;;;4.38;1.80;;;;;;;4.03;100.00;97541.84;5021950;28;20033;-59
2023/03/29 01:04:56;;;;;;;;;;;;;;;4.14;100.00;97533.22;5024780;28;20045;-59
2023/03/29 01:07:29;;;;;;;5.18;1.90;;;;;;;3.99;100.00;97538.78;5026537;28;20016;-58
2023/03/29 01:10:28;;;;;;;3.75;2.00;;;;;;;3.88;100.00;97529.47;5024811;28;20069;-59
2023/03/29 01:13:05;;;;;;;4.20;2.22;;;;;;;4.00;100.00;97527.03;5021936;28;20081;-59
2023/03/29 01:15:32;;;;;;;4.18;1.70;;;;;;;4.06;100.00;97525.38;5030008;28;20436;-59
2023/03/29 01:18:00;;;;;;;3.90;1.52;;;;;;;4.04;100.00;97522.06;5024578;28;20056;-59
2023/03/29 01:20:44;;;;;;;3.58;1.88;;;;;;;3.97;100.00;97523.91;5022036;28;20053;-60
2023/03/29 01:23:21;;;;;;;4.18;1.70;;;;;;;3.89;100.00;97523.09;5035056;28;20037;-60
2023/03/29 01:26:08;;;;;;;4.03;1.95;;;;;;;4.12;100.00;97518.34;5025098;28;20042;-59
2023/03/29 01:28:44;;;;;;;3.40;1.48;;;;;;;3.84;100.00;97508.66;5024287;28;20079;-59
2023/03/29 01:31:18;;;;;;;4.68;1.80;;;;;;;4.09;100.00;97502.69;5023223;28;20033;-60
2023/03/29 01:33:59;;;;;;;4.53;1.50;;;;;;;3.94;100.00;97498.34;5026547;28;20049;-58
2023/03/29 01:36:33;;;;;;;3.60;1.67;;;;;;;3.80;100.00;97496.72;5020342;28;20179;-59
2023/03/29 01:39:05;;;;;;;3.42;1.70;;;;;;;3.87;100.00;97481.47;5017711;28;20046;-59
2023/03/29 01:41:51;;;;;;;3.17;1.67;;;;;;;3.90;100.00;97481.03;5024166;28;20071;-59
2023/03/29 01:44:22;;;;;;;5.68;2.20;;;;;;;4.02;100.00;97475.91;5025560;28;20038;-59
2023/03/29 01:46:52;;;;;;;;;;;;;;;4.16;100.00;97471.34;5025847;28;20519;-60
2023/03/29 01:49:31;;;;;;;3.65;1.50;;;;;;;4.18;100.00;97468.47;5026596;28;19956;-59
2023/03/29 01:52:03;;;;;;;4.78;1.70;;;;;;;4.25;100.00;97458.56;5029854;28;20404;-58
2023/03/29 01:54:37;;;;;;;5.55;2.08;;;;;;;4.23;100.00;97449.88;5028091;28;20112;-59
2023/03/29 01:57:05;;;;;;;4.10;1.92;;;;;;;4.26;100.00;97444.94;5024011;28;20029;-59
2023/03/29 01:59:35;;;;;;;4.15;2.20;;;;;;;4.15;100.00;97440.22;5030031;28;20455;-60
2023/03/29 02:02:07;;;;;;;3.85;2.05;;;;;;;4.19;100.00;97438.78;5020393;28;20124;-59
2023/03/29 02:04:39;;;;;;;4.30;1.98;;;;;;;4.18;100.00;97439.81;5026987;28;20128;-59
2023/03/29 02:07:07;;;;;;;6.18;2.10;;;;;;;3.94;100.00;97436.72;5021922;28;20042;-59
2023/03/29 02:09:36;;;;;;;4.55;2.08;;;;;;;3.89;100.00;97426.66;5022815;28;20064;-59
2023/03/29 02:12:05;;;;;;;6.45;1.95;;;;;;;3.89;100.00;97418.63;5025911;28;20050;-59
2023/03/29 02:14:32;;;;;;;4.28;2.03;;;;;;;4.18;100.00;97417.53;5022130;28;20049;-59
2023/03/29 02:17:17;;;;;;;3.63;1.90;;;;;;;4.10;100.00;97429.31;5023260;28;20087;-58
2023/03/29 02:19:50;;;;;;;5.40;2.53;;;;;;;4.01;100.00;97426.00;5020141;28;20037;-59
2023/03/29 02:22:23;;;;;;;6.20;2.25;;;;;;;3.99;100.00;97428.91;5026426;28;20091;-59
2023/03/29 02:24:53;;;;;;;5.03;2.20;;;;;;;4.09;100.00;97416.94;5027617;28;20033;-58
2023/03/29 02:27:20;;;;;;;3.35;1.92;;;;;;;4.09;100.00;97420.44;5021894;28;20041;-59
2023/03/29 02:29:47;;;;;;;4.85;1.83;;;;;;;3.99;100.00;97404.81;5026233;28;20452;-58
2023/03/29 02:32:41;;;;;;;3.90;2.30;;;;;;;4.06;100.00;97414.69;5025105;28;20473;-59
2023/03/29 02:35:13;;;;;;;3.75;2.05;;;;;;;4.03;100.00;97407.88;5020094;28;20072;-59
2023/03/29 02:37:43;;;;;;;4.00;2.17;;;;;;;4.10;100.00;97399.84;5025826;28;20631;-59
2023/03/29 02:40:11;;;;;;;6.35;2.20;;;;;;;3.99;100.00;97396.78;5027512;28;20702;-58
2023/03/29 02:42:41;;;;;;;4.47;2.03;;;;;;;3.98;99.30;97392.44;5024841;28;20551;-57
2023/03/29 02:45:11;;;;;;;3.72;1.83;;;;;;;3.97;98.96;97380.06;5019688;28;20041;-58
2023/03/29 02:47:43;;;;;;;3.90;1.85;;;;;;;3.76;99.97;97381.16;5022840;28;20112;-59
2023/03/29 02:50:10;;;;;;;5.13;1.83;;;;;;;3.82;99.95;97368.75;5021396;28;20404;-59
2023/03/29 02:52:41;;;;;;;4.32;2.03;;;;;;;3.85;100.00;97369.19;5020643;28;20119;-59
2023/03/29 02:55:14;;;;;;;4.32;2.00;;;;;;;3.81;100.00;97375.16;5027984;28;20091;-59
2023/03/29 02:57:42;;;;;;;5.57;2.28;;;;;;;3.82;100.00;97369.59;5023267;28;20051;-59
2023/03/29 03:00:10;;;;;;;5.07;1.80;;;;;;;3.76;100.00;97371.22;5026238;28;20551;-59
2023/03/29 03:02:37;;;;;;;3.33;1.70;;;;;;;3.56;100.00;97365.06;5018171;28;20052;-59
2023/03/29 03:05:05;;;;;;;5.22;1.90;;;;;;;3.47;100.00;97367.94;5019497;28;20141;-59
2023/03/29 03:07:32;;;;;;;3.67;1.83;;;;;;;3.53;100.00;97362.81;5024483;28;20513;-59
2023/03/29 03:09:59;;;;;;;5.05;1.83;;;;;;;3.47;100.00;97367.94;5023691;28;20037;-59
2023/03/29 03:12:26;;;;;;;4.22;2.05;;;;;;;3.46;100.00;97368.19;5020104;28;20042;-58
2023/03/29 03:14:52;;;;;;;4.20;1.90;;;;;;;3.44;100.00;97370.22;5019096;28;20682;-58
2023/03/29 03:17:18;;;;;;;4.15;2.00;;;;;;;3.38;100.00;97378.06;5020967;28;20046;-58
2023/03/29 03:19:46;;;;;;;5.63;2.15;;;;;;;3.46;100.00;97377.03;5006845;28;20107;-58
2023/03/29 03:22:13;;;;;;;5.78;2.20;;;;;;;3.44;100.00;97384.44;5025752;28;20045;-59
2023/03/29 03:24:41;;;;;;;3.83;2.05;;;;;;;3.55;99.62;97376.81;5027341;28;20215;-58
2023/03/29 03:27:09;;;;;;;4.00;1.88;;;;;;;3.72;98.97;97374.56;5020815;28;20041;-59
2023/03/29 03:29:37;;;;;;;3.50;1.80;;;;;;;3.75;98.65;97376.78;5029068;28;20048;-58
2023/03/29 03:32:42;;;;;;;9.88;2.50;;;;;;;3.83;97.87;97373.09;5021530;28;20123;-59
2023/03/29 03:35:48;;;;;;;4.45;2.50;;;;;;;3.90;97.10;97369.38;4977861;28;20066;-58
2023/03/29 03:38:15;;;;;;;;;;;;;;;3.93;96.96;97360.09;5012421;28;20056;-57
2023/03/29 03:40:52;;;;;;;5.47;2.13;;;;;;;3.93;96.43;97352.03;5027841;28;19921;-59
2023/03/29 03:43:19;;;;;;;5.93;2.88;;;;;;;3.96;95.27;97358.84;5025068;28;20038;-58
2023/03/29 03:45:46;;;;;;;4.72;2.22;;;;;;;4.12;93.88;97365.59;5024960;28;20045;-56
2023/03/29 03:48:16;;;;;;;5.53;2.47;;;;;;;4.24;92.24;97371.94;5023174;28;20112;-58
2023/03/29 03:50:54;;;;;;;4.63;2.55;;;;;;;4.16;93.22;97372.19;5021852;28;20509;-58
2023/03/29 03:53:22;;;;;;;5.47;2.45;;;;;;;4.13;93.80;97373.44;5029283;28;20045;-57
2023/03/29 03:56:19;;;;;;;5.25;2.00;;;;;;;4.05;94.34;97376.34;4971511;28;20062;-58
2023/03/29 03:59:06;;;;;;;6.47;2.92;;;;;;;4.01;94.47;97375.09;5024769;28;20061;-57
2023/03/29 04:01:49;;;;;;;4.80;2.17;;;;;;;4.08;94.23;97372.41;5017946;28;20053;-58
2023/03/29 04:04:19;;;;;;;5.32;1.88;;;;;;;4.29;92.69;97374.00;5021983;28;20145;-59
2023/03/29 04:07:01;;;;;;;5.18;2.08;;;;;;;4.33;92.97;97374.41;5030893;28;20498;-59
2023/03/29 04:09:47;;;;;;;6.43;2.40;;;;;;;4.26;93.29;97379.78;5025565;28;20144;-58
2023/03/29 04:12:32;;;;;;;5.95;2.13;;;;;;;4.23;93.70;97378.34;5031719;28;20559;-59
2023/03/29 04:15:00;;;;;;;3.03;1.92;;;;;;;4.31;93.17;97365.75;5023779;28;20049;-59
2023/03/29 04:17:27;;;;;;;5.35;2.10;;;;;;;4.34;92.34;97368.00;5030450;28;20049;-59
2023/03/29 04:19:57;;;;;;;4.38;2.10;;;;;;;4.31;92.71;97371.94;5024035;28;20052;-57
2023/03/29 04:22:26;;;;;;;5.10;2.30;;;;;;;4.31;93.18;97371.94;5032014;28;20049;-59
2023/03/29 04:24:52;;;;;;;4.35;2.25;;;;;;;4.33;93.03;97371.72;5029635;28;20542;-59
2023/03/29 04:27:37;;;;;;;4.20;1.88;;;;;;;4.48;92.28;97374.13;5026332;28;20048;-59
2023/03/29 04:30:12;;;;;;;4.90;2.17;;;;;;;4.44;93.02;97379.13;5016816;28;20145;-58
2023/03/29 04:33:04;;;;;;;5.53;2.50;;;;;;;4.40;93.27;97376.03;5022898;28;20132;-58
2023/03/29 04:35:33;;;;;;;5.05;2.08;;;;;;;4.40;92.35;97375.22;5032164;28;20044;-59
2023/03/29 04:37:59;;;;;;;4.88;1.90;;;;;;;4.46;92.19;97379.72;5021233;28;20104;-59
2023/03/29 04:40:27;;;;;;;4.07;1.88;;;;;;;4.34;94.58;97373.34;5025360;28;20037;-59
2023/03/29 04:43:17;;;;;;;4.53;1.92;;;;;;;4.31;94.15;97371.94;5018010;28;20063;-59
2023/03/29 04:45:54;;;;;;;3.22;1.70;;;;;;;4.34;94.67;97363.47;5017560;28;20394;-59
2023/03/29 04:48:46;;;;;;;7.13;2.08;;;;;;;4.39;94.95;97373.56;5021184;28;20123;-59
2023/03/29 04:51:12;;;;;;;7.15;2.20;;;;;;;4.48;95.71;97380.34;5025843;28;20095;-59
2023/03/29 04:53:39;;;;;;;5.38;2.10;;;;;;;4.57;95.72;97375.53;5030225;28;20080;-59
2023/03/29 04:56:06;;;;;;;5.07;1.88;;;;;;;4.68;94.65;97382.09;5025568;28;20091;-59
2023/03/29 04:58:59;;;;;;;4.55;1.80;;;;;;;4.76;92.83;97378.38;5024472;28;20508;-59
2023/03/29 05:01:25;;;;;;;3.22;1.98;;;;;;;4.79;94.80;97376.06;5026236;28;20098;-59
2023/03/29 05:03:56;;;;;;;4.07;1.80;;;;;;;4.65;97.02;97377.19;5028992;28;20721;-59
2023/03/29 05:06:28;;;;;;;4.28;2.25;;;;;;;4.64;98.01;97384.38;5023008;28;20084;-59
2023/03/29 05:08:55;;;;;;;5.43;2.95;;;;;;;4.74;98.78;97389.31;5024492;28;20041;-60
2023/03/29 05:11:25;;;;;;;4.93;2.22;;;;;;;4.77;97.38;97386.19;5025245;28;20041;-59
2023/03/29 05:13:54;;;;;;;3.42;1.73;;;;;;;4.75;97.87;97382.88;5024745;28;20038;-59
2023/03/29 05:16:23;;;;;;;3.97;2.05;;;;;;;4.50;98.59;97391.66;5023831;28;20096;-59
2023/03/29 05:18:54;;;;;;;4.55;2.08;;;;;;;4.34;99.67;97397.47;5022990;28;20041;-59
2023/03/29 05:21:21;;;;;;;4.10;1.67;;;;;;;4.29;99.63;97392.78;5021567;28;20042;-59
2023/03/29 05:23:48;;;;;;;5.60;2.20;;;;;;;4.31;100.00;97395.25;5025959;28;20129;-59
2023/03/29 05:26:15;;;;;;;3.83;2.03;;;;;;;4.39;100.00;97395.81;5020355;28;20611;-59
2023/03/29 05:28:49;;;;;;;3.80;1.90;;;;;;;4.28;100.00;97396.50;5024880;28;20508;-57
2023/03/29 05:31:16;;;;;;;5.20;2.13;;;;;;;4.32;100.00;97394.22;5033563;28;20045;-59
2023/03/29 05:33:47;;;;;;;7.38;2.50;;;;;;;4.36;100.00;97390.91;5022498;28;20057;-59
2023/03/29 05:36:15;;;;;;;5.82;2.20;;;;;;;4.52;100.00;97394.97;5024660;28;20044;-60
2023/03/29 05:38:48;;;;;;;5.38;2.50;;;;;;;4.79;95.56;97394.03;5021920;28;20041;-59
2023/03/29 05:41:19;;;;;;;5.88;2.13;;;;;;;4.85;93.98;97397.69;5017888;28;20050;-59
2023/03/29 05:43:45;;;;;;;6.68;1.95;;;;;;;4.87;94.32;97395.63;5022609;28;20140;-59
2023/03/29 05:46:12;;;;;;;3.78;1.65;;;;;;;4.93;92.77;97397.44;5023152;28;20037;-59
2023/03/29 05:48:46;;;;;;;4.32;1.88;;;;;;;5.04;89.87;97395.94;5015582;28;20049;-59
2023/03/29 05:51:13;;;;;;;4.35;1.92;;;;;;;5.29;90.30;97397.84;5018286;28;20444;-59
2023/03/29 05:53:40;;;;;;;4.10;1.40;;;;;;;5.32;86.98;97392.91;5028927;28;20045;-60
2023/03/29 05:56:07;;;;;;;4.07;1.70;;;;;;;5.46;84.72;97393.59;5028858;28;20567;-59
2023/03/29 05:58:35;;;;;;;3.63;1.63;;;;;;;5.47;89.11;97397.94;5028750;28;20045;-59
2023/03/29 06:01:04;;;;;;;5.65;2.20;;;;;;;5.42;90.62;97405.00;5022401;28;20136;-59
2023/03/29 06:03:48;;;;;;;3.38;1.23;;;;;;;5.43;87.13;97404.78;5022756;28;20701;-59
2023/03/29 06:06:17;;;;;;;8.15;1.73;;;;;;;5.51;90.84;97409.06;5020697;28;20492;-59
2023/03/29 06:08:44;;;;;;;4.03;1.80;;;;;;;5.53;92.15;97398.13;5028482;28;20048;-58
2023/03/29 06:11:23;;;;;;;4.60;1.98;;;;;;;5.48;89.78;97404.13;5025711;28;20080;-59
2023/03/29 06:14:15;;;;;;;7.03;1.60;;;;;;;5.58;89.51;97407.16;5025115;28;20045;-59
2023/03/29 06:16:48;;;;;;;5.32;1.88;;;;;;;5.77;86.33;97412.59;5024739;28;20070;-59
2023/03/29 06:19:16;;;;;;;5.90;1.95;;;;;;;5.95;81.77;97405.59;5025204;28;20053;-59
2023/03/29 06:21:42;;;;;;;3.40;1.67;;;;;;;5.95;83.36;97398.38;5020706;28;20041;-60
2023/03/29 06:24:12;;;;;;;3.80;1.88;;;;;;;6.07;84.91;97413.78;5030663;28;20128;-60
2023/03/29 06:26:45;;;;;;;4.35;1.90;;;;;;;6.30;80.72;97418.50;5027993;28;20560;-59
2023/03/29 06:29:11;;;;;;;2.92;1.50;;;;;;;6.32;82.31;97419.13;5025219;28;20128;-59
2023/03/29 06:31:39;;;;;;;8.38;2.05;;;;;;;6.27;83.61;97420.84;5018460;28;20084;-59
2023/03/29 06:34:08;;;;;;;4.38;1.80;;;;;;;6.37;83.50;97408.53;5025664;28;20037;-59
2023/03/29 06:36:57;;;;;;;3.42;1.40;;;;;;;6.48;84.56;97408.81;5025931;28;20059;-59
2023/03/29 06:39:25;;;;;;;5.57;1.55;;;;;;;6.57;84.11;97415.56;5024932;28;20611;-59
2023/03/29 06:42:08;;;;;;;4.20;1.60;;;;;;;6.68;83.94;97410.44;5021840;28;20044;-59
2023/03/29 06:45:07;;;;;;;4.03;1.58;;;;;;;6.65;82.70;97419.78;5002353;28;20089;-59
2023/03/29 06:47:35;;;;;;;7.03;2.05;;;;;;;6.63;84.71;97413.81;5017539;28;20416;-59
2023/03/29 06:50:02;;;;;;;3.15;1.67;;;;;;;6.72;84.28;97419.72;5024706;28;20034;-59
2023/03/29 06:52:55;;;;;;;6.43;2.00;;;;;;;6.70;83.27;97416.41;5024669;28;20060;-59
2023/03/29 06:55:23;;;;;;;3.65;1.90;;;;;;;6.73;84.34;97421.34;5024172;28;20068;-59
2023/03/29 06:57:51;;;;;;;5.10;2.35;;;;;;;6.76;82.74;97419.06;5033209;28;20060;-59
2023/03/29 07:00:26;;;;;;;6.05;1.83;;;;;;;6.88;83.91;97419.09;5025719;28;20048;-59
2023/03/29 07:03:18;;;;;;;6.75;1.70;;;;;;;7.02;85.03;97414.38;5027558;28;20123;-60
2023/03/29 07:05:50;;;;;;;4.63;1.88;;;;;;;7.01;82.92;97419.97;5027267;28;20491;-58
2023/03/29 07:08:19;;;;;;;3.77;1.60;;;;;;;7.08;82.21;97418.00;5032759;28;20052;-60
2023/03/29 07:10:58;;;;;;;3.40;1.55;;;;;;;7.20;82.33;97418.06;5023356;28;20069;-60
2023/03/29 07:13:45;;;;;;;4.60;1.58;;;;;;;7.25;81.17;97420.06;5026557;28;20270;-60
2023/03/29 07:16:16;;;;;;;4.75;1.95;;;;;;;7.39;82.80;97426.91;5029357;28;20056;-60
2023/03/29 07:18:48;;;;;;;5.65;1.83;;;;;;;7.48;83.16;97426.56;5028020;28;20045;-60
2023/03/29 07:21:34;;;;;;;4.40;2.08;;;;;;;7.44;79.15;97436.16;5031380;28;20131;-59
2023/03/29 07:24:05;;;;;;;5.57;1.95;;;;;;;7.53;78.50;97437.47;5033649;28;20471;-59
2023/03/29 07:26:33;;;;;;;4.63;1.70;;;;;;;7.46;77.27;97442.97;5033987;28;20060;-60
2023/03/29 07:29:00;;;;;;;5.88;1.70;;;;;;;7.51;78.78;97448.47;5031002;28;20056;-60
2023/03/29 07:31:28;;;;;;;3.25;1.70;;;;;;;7.61;76.29;97439.84;5028552;28;20037;-59
2023/03/29 07:34:09;;;;;;;5.45;1.60;;;;;;;7.93;74.63;97447.63;5023756;28;20042;-59
2023/03/29 07:36:37;;;;;;;5.43;1.83;;;;;;;7.88;74.63;97441.28;5023968;28;20045;-59
2023/03/29 07:39:05;;;;;;;4.57;1.70;;;;;;;8.02;74.42;97448.09;5021511;28;20034;-59
2023/03/29 07:41:34;;;;;;;29.15;10.57;;;;;;;8.00;74.94;97444.81;5026289;28;20072;-59
2023/03/29 07:44:10;;;;;;;100.28;33.50;;;;;;;7.83;75.38;97452.78;5020214;28;20130;-59
2023/03/29 07:46:37;;;;;;;117.22;37.63;;;;;;;7.81;76.13;97450.31;5028707;28;20048;-59
2023/03/29 07:49:05;;;;;;;86.88;27.55;;;;;;;7.98;77.01;97451.50;5026922;28;20579;-59
2023/03/29 07:51:32;;;;;;;33.85;14.93;;;;;;;8.14;76.97;97458.09;5030522;28;20455;-59
2023/03/29 07:54:06;;;;;;;15.38;7.00;;;;;;;8.23;75.33;97450.44;5023789;28;20046;-59
2023/03/29 07:56:39;;;;;;;15.20;5.50;;;;;;;8.25;77.34;97459.16;5029080;28;20114;-60
2023/03/29 07:59:24;;;;;;;6.75;3.17;;;;;;;8.39;76.18;97447.03;5020927;28;19941;-59
2023/03/29 08:02:01;;;;;;;7.15;1.90;;;;;;;8.53;73.29;97446.81;5021859;28;19921;-60
2023/03/29 08:04:36;;;;;;;6.20;2.10;;;;;;;8.53;73.95;97441.44;5024860;28;20052;-60
2023/03/29 08:07:18;;;;;;;4.13;1.48;;;;;;;8.95;70.61;97441.22;5026079;28;20407;-59
2023/03/29 08:10:04;;;;;;;5.82;1.55;;;;;;;9.12;69.89;97445.84;5024730;28;20060;-60
2023/03/29 08:12:49;;;;;;;4.35;1.33;;;;;;;9.09;69.70;97446.34;5016276;28;20087;-60
2023/03/29 08:15:18;;;;;;;3.55;1.58;;;;;;;8.83;69.61;97451.22;5025078;28;20057;-60
2023/03/29 08:17:45;;;;;;;4.72;1.60;;;;;;;8.83;69.61;97445.81;5024603;28;20041;-60
2023/03/29 08:20:15;;;;;;;8.60;2.38;;;;;;;8.89;69.59;97446.75;5024477;28;20510;-60
2023/03/29 08:22:44;;;;;;;4.57;1.70;;;;;;;8.77;69.59;97439.50;5031764;28;20632;-60
2023/03/29 08:25:31;;;;;;;6.57;1.60;;;;;;;8.81;69.49;97437.16;5027272;28;20144;-60
2023/03/29 08:27:58;;;;;;;5.18;1.40;;;;;;;8.88;68.21;97428.91;5025836;28;20136;-60
2023/03/29 08:30:36;;;;;;;3.05;1.30;;;;;;;8.97;68.84;97435.56;5029856;28;20496;-60
2023/03/29 08:33:04;;;;;;;3.22;1.40;;;;;;;9.00;68.91;97434.28;5019981;28;20132;-59
2023/03/29 08:35:31;;;;;;;4.25;1.20;;;;;;;9.21;66.14;97438.19;5021781;28;20044;-59
2023/03/29 08:38:18;;;;;;;7.05;1.63;;;;;;;9.31;68.27;97440.25;5031687;28;20695;-59
2023/03/29 08:40:47;;;;;;;3.70;1.55;;;;;;;9.27;66.66;97434.53;5029983;28;20038;-59
2023/03/29 08:43:38;;;;;;;3.55;1.50;;;;;;;9.32;66.46;97441.91;5021146;28;20516;-60
2023/03/29 08:46:25;;;;;;;3.50;1.40;;;;;;;9.34;66.66;97445.19;5041313;28;20033;-59
2023/03/29 08:49:09;;;;;;;2.58;1.10;;;;;;;9.36;67.18;97445.75;5040046;28;20571;-59
2023/03/29 08:51:43;;;;;;;3.53;1.60;;;;;;;9.36;66.94;97443.03;5030412;28;20125;-60
2023/03/29 08:54:23;;;;;;;3.58;1.30;;;;;;;9.42;65.74;97436.69;5032128;28;20579;-60
2023/03/29 08:57:22;;;;;;;3.33;1.40;;;;;;;9.77;65.63;97442.97;5023055;28;20111;-59
2023/03/29 08:59:57;;;;;;;2.88;1.08;;;;;;;9.82;64.93;97440.34;5028741;28;20037;-60
2023/03/29 09:02:26;;;;;;;5.10;1.63;;;;;;;9.93;64.16;97440.50;5031894;28;20512;-60
2023/03/29 09:05:14;;;;;;;2.45;1.15;;;;;;;10.08;64.66;97435.34;5022760;28;20042;-60
2023/03/29 09:07:43;;;;;;;5.07;1.38;;;;;;;9.91;64.30;97432.63;5032913;28;20045;-59
2023/03/29 09:10:15;;;;;;;2.78;1.10;;;;;;;10.13;64.09;97432.69;5028651;28;20095;-60
2023/03/29 09:13:05;;;;;;;5.47;1.67;;;;;;;10.14;63.37;97420.00;5028498;28;20047;-59
2023/03/29 09:16:00;;;;;;;3.67;1.42;;;;;;;10.24;63.31;97424.72;5041991;28;20049;-59
2023/03/29 09:18:47;;;;;;;2.72;1.30;;;;;;;10.47;62.50;97434.56;5021677;28;20037;-60
2023/03/29 09:21:18;;;;;;;5.28;1.52;;;;;;;10.83;61.88;97427.97;5021903;28;20501;-60
2023/03/29 09:23:47;;;;;;;;;;;;;;;10.61;60.41;97420.69;5027867;28;20088;-60
2023/03/29 09:27:04;;;;;;;2.95;1.30;;;;;;;10.54;60.22;97418.94;5013457;28;19983;-59
2023/03/29 09:29:54;;;;;;;5.28;2.00;;;;;;;10.74;62.75;97417.59;5027734;28;20544;-60
2023/03/29 09:32:41;;;;;;;7.03;1.65;;;;;;;10.92;62.84;97402.09;5044542;28;20033;-60
2023/03/29 09:35:34;;;;;;;5.63;1.55;;;;;;;11.19;64.07;97404.81;5021475;28;20473;-59
2023/03/29 09:38:02;;;;;;;3.40;1.55;;;;;;;11.28;61.95;97405.16;5022845;28;20053;-60
2023/03/29 09:40:38;;;;;;;2.95;1.40;;;;;;;11.55;60.31;97408.94;5028955;28;20409;-60
2023/03/29 09:43:18;;;;;;;4.38;1.20;;;;;;;11.90;60.93;97413.03;5024413;28;20042;-60
2023/03/29 09:45:51;;;;;;;3.40;1.52;;;;;;;11.93;59.64;97419.81;5019924;28;20136;-60
2023/03/29 09:48:19;;;;;;;4.25;1.70;;;;;;;12.04;58.03;97412.56;5028052;28;20136;-60
2023/03/29 09:50:51;;;;;;;2.95;1.27;;;;;;;11.70;56.53;97416.41;5028504;28;20037;-60
2023/03/29 09:53:20;;;;;;;3.20;1.30;;;;;;;11.86;54.94;97414.63;5027210;28;20103;-60
2023/03/29 09:56:07;;;;;;;6.47;1.33;;;;;;;12.11;57.41;97415.94;5027597;28;20053;-60
2023/03/29 09:58:45;;;;;;;3.88;1.20;;;;;;;11.81;56.12;97410.00;5021487;28;20163;-60
2023/03/29 10:01:16;;;;;;;5.07;1.50;;;;;;;11.84;56.60;97417.59;5024790;28;20045;-60
2023/03/29 10:03:50;;;;;;;3.00;1.40;;;;;;;11.71;56.97;97399.88;5022785;28;20516;-59
2023/03/29 10:06:19;;;;;;;2.38;1.33;;;;;;;11.90;55.60;97385.91;5021626;28;20107;-59
2023/03/29 10:08:57;;;;;;;3.65;1.10;;;;;;;12.09;56.51;97391.75;5016413;28;20044;-59
2023/03/29 10:11:35;;;;;;;3.10;1.20;;;;;;;12.32;55.55;97389.72;5018410;28;20068;-59
2023/03/29 10:14:06;;;;;;;5.53;1.75;;;;;;;12.26;57.03;97396.22;5023972;28;20061;-60
2023/03/29 10:16:36;;;;;;;2.33;1.10;;;;;;;12.42;55.96;97393.59;5020475;28;20532;-60
2023/03/29 10:19:18;;;;;;;3.30;1.50;;;;;;;12.27;55.51;97397.84;5020976;28;20033;-60
2023/03/29 10:21:51;;;;;;;2.72;1.30;;;;;;;12.60;54.97;97392.28;5024342;28;20294;-60
2023/03/29 10:24:23;;;;;;;3.95;1.70;;;;;;;12.93;55.05;97398.41;5025149;28;20152;-59
2023/03/29 10:26:56;;;;;;;3.53;1.10;;;;;;;13.03;54.09;97392.19;5030083;28;20056;-60
2023/03/29 10:29:24;;;;;;;3.85;1.58;;;;;;;13.27;53.64;97387.06;5026087;28;20528;-60
2023/03/29 10:31:51;;;;;;;4.57;1.40;;;;;;;12.88;53.26;97387.53;5024903;28;20799;-60
2023/03/29 10:34:24;;;;;;;3.13;1.10;;;;;;;12.84;54.40;97381.00;5023888;28;20160;-59
2023/03/29 10:36:57;;;;;;;3.28;1.00;;;;;;;12.67;53.16;97373.88;5024980;28;20041;-60
2023/03/29 10:39:28;;;;;;;2.10;1.00;;;;;;;13.08;52.77;97370.47;5017776;28;20045;-60
2023/03/29 10:41:54;;;;;;;;;;;;;;;13.34;53.68;97375.94;5024301;28;20044;-60
2023/03/29 10:44:30;;;;;;;;;;;;;;;13.21;51.65;97377.28;5019200;28;19924;-60
2023/03/29 10:47:15;;;;;;;;;;;;;;;13.04;53.39;97372.06;5025058;28;20027;-60
2023/03/29 10:49:43;;;;;;;;;;;;;;;13.11;54.17;97369.09;5027455;28;20010;-59
2023/03/29 10:52:11;;;;;;;;;;;;;;;13.04;53.16;97371.28;5022822;28;19948;-59
2023/03/29 10:54:38;;;;;;;;;;;;;;;12.94;53.32;97355.75;5023419;28;19951;-60
2023/03/29 10:57:09;;;;;;;;;;;;;;;13.03;53.78;97356.03;5029724;28;20601;-60
2023/03/29 10:59:39;;;;;;;;;;;;;;;13.27;53.73;97348.22;5022844;28;20631;-60
2023/03/29 11:02:14;;;;;;;;;;;;;;;13.38;54.27;97349.84;5028787;28;19952;-60
2023/03/29 11:04:41;;;;;;;;;;;;;;;13.61;52.80;97346.88;5031872;28;20047;-60
2023/03/29 11:07:26;;;;;;;2.65;1.15;;;;;;;13.73;52.67;97342.00;5019765;28;19921;-60
2023/03/29 11:10:16;;;;;;;;;;;;;;;13.62;51.54;97338.47;5025894;28;20044;-59
2023/03/29 11:12:48;;;;;;;;;;;;;;;13.78;52.21;97335.72;5026316;28;19925;-60
2023/03/29 11:15:28;;;;;;;;;;;;;;;13.92;52.27;97335.97;5019649;28;19929;-60
2023/03/29 11:17:57;;;;;;;;;;;;;;;14.38;52.76;97328.78;5022954;28;19928;-60
2023/03/29 11:20:29;;;;;;;;;;;;;;;14.55;52.03;97329.25;5024685;28;20496;-60
2023/03/29 11:22:56;;;;;;;;;;;;;;;15.03;51.57;97322.50;5026802;28;19925;-60
2023/03/29 11:25:42;;;;;;;;;;;;;;;15.05;49.17;97328.50;5026809;28;20019;-60
2023/03/29 11:28:18;;;;;;;;;;;;;;;14.97;50.06;97331.81;5029667;28;19921;-60
2023/03/29 11:30:44;;;;;;;;;;;;;;;14.66;50.48;97343.66;5027758;28;19970;-60
2023/03/29 11:33:11;;;;;;;;;;;;;;;14.57;48.81;97332.50;5027719;28;19932;-60
2023/03/29 11:35:56;;;;;;;;;;;;;;;14.53;50.18;97336.09;5026651;28;19928;-60
2023/03/29 11:38:28;;;;;;;;;;;;;;;14.57;49.95;97339.88;5027645;28;19968;-60
2023/03/29 11:41:14;;;;;;;;;;;;;;;14.79;48.53;97333.28;5029119;28;20444;-59
2023/03/29 11:43:53;;;;;;;;;;;;;;;14.98;49.73;97327.16;5024030;28;19947;-61
2023/03/29 11:46:27;;;;;;;;;;;;;;;15.11;47.77;97315.63;5031478;28;20450;-60
2023/03/29 11:49:13;;;;;;;;;;;;;;;15.30;48.20;97317.69;5030067;28;19968;-62
2023/03/29 11:51:44;;;;;;;;;;;;;;;14.98;46.52;97316.25;5031190;28;19932;-61
2023/03/29 11:54:21;;;;;;;;;;;;;;;15.04;46.75;97315.13;5026493;28;19925;-61
2023/03/29 11:56:55;;;;;;;;;;;;;;;15.17;46.19;97313.69;5031426;28;20519;-60
2023/03/29 11:59:31;;;;;;;;;;;;;;;15.19;47.57;97328.66;5031598;28;20416;-62
2023/03/29 12:02:08;;;;;;;;;;;;;;;15.10;44.51;97327.63;5025751;28;19921;-59
2023/03/29 12:04:40;;;;;;;;;;;;;;;15.09;45.37;97323.28;5028872;28;20024;-61
2023/03/29 12:07:33;;;;;;;;;;;;;;;15.19;46.41;97322.41;5032979;28;19929;-60
2023/03/29 12:10:20;;;;;;;;;;;;;;;14.87;47.05;97331.84;5021812;28;20408;-61
2023/03/29 12:13:02;;;;;;;;;;;;;;;14.75;45.29;97327.53;5032431;28;19956;-61
2023/03/29 12:15:31;;;;;;;;;;;;;;;15.05;46.47;97333.13;5027512;28;20043;-61
2023/03/29 12:18:05;;;;;;;;;;;;;;;15.08;48.01;97329.84;5025911;28;19932;-61
2023/03/29 12:20:38;;;;;;;;;;;;;;;15.30;46.50;97326.66;5025135;28;19967;-62